createdAt,value
2022-12-17T00:03:06.624Z,102337.31
2022-12-17T00:06:31.795Z,102352.88
2022-12-17T00:09:53.854Z,102364.41
2022-12-17T00:13:20.916Z,102352.88
2022-12-17T00:16:43.180Z,102349.59
2022-12-17T00:20:05.772Z,102356.41
2022-12-17T00:23:29.134Z,102364.97
2022-12-17T00:26:52.117Z,102370.38
2022-12-17T00:30:14.167Z,102363.19
2022-12-17T00:33:36.564Z,102354.91
2022-12-17T00:36:59.331Z,102350.53
2022-12-17T00:40:24.343Z,102358.72
2022-12-17T00:43:46.611Z,102372.28
2022-12-17T00:47:10.675Z,102377.47
2022-12-17T00:50:33.657Z,102374.00
2022-12-17T00:53:55.963Z,102370.53
2022-12-17T00:57:19.969Z,102360.47
2022-12-17T01:00:43.031Z,102352.44
2022-12-17T01:04:06.140Z,102342.63
2022-12-17T01:07:30.692Z,102343.97
2022-12-17T01:10:53.331Z,102351.81
2022-12-17T01:14:20.048Z,102350.16
2022-12-17T01:17:42.390Z,102351.28
2022-12-17T01:21:05.391Z,102338.59
2022-12-17T01:24:55.271Z,102342.75
2022-12-17T01:28:18.542Z,102340.31
2022-12-17T01:31:45.352Z,102337.00
2022-12-17T01:35:07.464Z,102337.44
2022-12-17T01:38:31.758Z,102340.78
2022-12-17T01:41:54.667Z,102331.75
2022-12-17T01:45:19.865Z,102332.78
2022-12-17T01:48:47.988Z,102345.91
2022-12-17T01:52:11.951Z,102331.78
2022-12-17T01:55:34.459Z,102336.94
2022-12-17T01:58:58.187Z,102343.84
2022-12-17T02:02:20.864Z,102326.59
2022-12-17T02:05:51.991Z,102341.88
2022-12-17T02:09:22.575Z,102344.44
2022-12-17T02:12:49.650Z,102328.25
2022-12-17T02:16:16.035Z,102323.28
2022-12-17T02:19:47.175Z,102326.00
2022-12-17T02:23:24.114Z,102324.78
2022-12-17T02:26:54.405Z,102330.25
2022-12-17T02:30:22.691Z,102341.16
2022-12-17T02:33:45.766Z,102347.47
2022-12-17T02:37:09.423Z,102341.19
2022-12-17T02:40:34.218Z,102346.31
2022-12-17T02:43:59.311Z,102333.38
2022-12-17T02:47:37.173Z,102331.25
2022-12-17T02:51:00.260Z,102338.16
2022-12-17T02:54:23.802Z,102341.72
2022-12-17T02:57:48.485Z,102341.34
2022-12-17T03:01:16.484Z,102332.28
2022-12-17T03:04:39.648Z,102329.41
2022-12-17T03:08:09.622Z,102338.22
2022-12-17T03:11:32.300Z,102337.75
2022-12-17T03:14:55.111Z,102327.31
2022-12-17T03:18:19.495Z,102331.91
2022-12-17T03:21:41.844Z,102330.75
2022-12-17T03:25:04.568Z,102329.72
2022-12-17T03:28:30.655Z,102333.59
2022-12-17T03:31:53.754Z,102339.06
2022-12-17T03:35:18.996Z,102341.09
2022-12-17T03:38:41.829Z,102341.84
2022-12-17T03:42:04.331Z,102337.81
2022-12-17T03:45:30.677Z,102345.16
2022-12-17T03:48:52.906Z,102346.03
2022-12-17T03:52:17.024Z,102345.41
2022-12-17T03:55:35.931Z,102334.41
2022-12-17T03:58:59.879Z,102332.09
2022-12-17T04:02:22.921Z,102343.38
2022-12-17T04:05:46.120Z,102347.19
2022-12-17T04:09:14.795Z,102331.78
2022-12-17T04:12:37.332Z,102318.88
2022-12-17T04:16:00.308Z,102320.22
2022-12-17T04:19:22.705Z,102319.44
2022-12-17T04:22:48.783Z,102312.03
2022-12-17T04:26:13.376Z,102312.38
2022-12-17T04:29:35.914Z,102306.56
2022-12-17T04:32:57.937Z,102292.00
2022-12-17T04:36:20.505Z,102291.09
2022-12-17T04:39:42.073Z,102294.72
2022-12-17T04:43:06.160Z,102286.56
2022-12-17T04:46:30.924Z,102292.44
2022-12-17T04:49:53.396Z,102295.50
2022-12-17T04:53:19.236Z,102287.06
2022-12-17T04:56:41.529Z,102293.16
2022-12-17T05:00:07.012Z,102280.69
2022-12-17T05:03:35.197Z,102289.81
2022-12-17T05:06:58.866Z,102293.25
2022-12-17T05:10:21.723Z,102299.81
2022-12-17T05:13:47.311Z,102297.63
2022-12-17T05:17:08.948Z,102305.91
2022-12-17T05:20:33.230Z,102292.94
2022-12-17T05:23:55.704Z,102292.56
2022-12-17T05:27:19.571Z,102305.28
2022-12-17T05:30:42.084Z,102294.34
2022-12-17T05:34:05.644Z,102280.34
2022-12-17T05:37:30.917Z,102302.28
2022-12-17T05:40:56.303Z,102293.47
2022-12-17T05:44:20.647Z,102299.50
2022-12-17T05:47:44.370Z,102299.75
2022-12-17T05:51:22.459Z,102291.72
2022-12-17T05:54:45.376Z,102297.81
2022-12-17T05:58:08.670Z,102290.34
2022-12-17T06:01:31.691Z,102299.81
2022-12-17T06:04:57.491Z,102292.97
2022-12-17T06:08:29.893Z,102291.16
2022-12-17T06:12:02.396Z,102301.13
2022-12-17T06:15:29.575Z,102308.44
2022-12-17T06:18:53.429Z,102321.41
2022-12-17T06:22:23.893Z,102316.50
2022-12-17T06:25:51.412Z,102315.22
2022-12-17T06:29:15.812Z,102329.38
2022-12-17T06:32:37.895Z,102328.44
2022-12-17T06:36:02.775Z,102314.22
2022-12-17T06:39:28.662Z,102319.38
2022-12-17T06:42:53.238Z,102320.28
2022-12-17T06:46:17.742Z,102319.56
2022-12-17T06:49:41.064Z,102324.59
2022-12-17T06:53:05.234Z,102329.25
2022-12-17T06:56:33.814Z,102329.41
2022-12-17T07:00:01.570Z,102333.19
2022-12-17T07:03:24.935Z,102338.19
2022-12-17T07:06:50.379Z,102342.97
2022-12-17T07:10:14.531Z,102338.59
2022-12-17T07:13:37.701Z,102342.88
2022-12-17T07:17:05.034Z,102338.75
2022-12-17T07:20:40.500Z,102340.97
2022-12-17T07:24:05.051Z,102345.84
2022-12-17T07:27:28.364Z,102347.31
2022-12-17T07:30:59.078Z,102351.16
2022-12-17T07:34:22.621Z,102352.16
2022-12-17T07:37:49.380Z,102360.06
2022-12-17T07:41:15.509Z,102371.91
2022-12-17T07:44:38.142Z,102364.13
2022-12-17T07:48:01.363Z,102374.22
2022-12-17T07:51:26.209Z,102370.28
2022-12-17T07:54:49.131Z,102366.63
2022-12-17T07:58:18.167Z,102362.25
2022-12-17T08:01:41.997Z,102352.09
2022-12-17T08:05:10.340Z,102354.38
2022-12-17T08:08:35.347Z,102350.13
2022-12-17T08:11:59.029Z,102342.06
2022-12-17T08:15:23.918Z,102346.44
2022-12-17T08:18:46.732Z,102364.53
2022-12-17T08:22:09.644Z,102373.38
2022-12-17T08:25:34.176Z,102369.50
2022-12-17T08:28:58.468Z,102361.19
2022-12-17T08:32:22.195Z,102366.56
2022-12-17T08:35:46.208Z,102370.94
2022-12-17T08:39:19.417Z,102372.22
2022-12-17T08:42:58.748Z,102383.50
2022-12-17T08:46:23.480Z,102373.50
2022-12-17T08:49:48.567Z,102382.31
2022-12-17T08:53:17.410Z,102370.78
2022-12-17T08:56:55.013Z,102372.22
2022-12-17T09:00:27.032Z,102374.88
2022-12-17T09:03:53.018Z,102382.78
2022-12-17T09:07:15.728Z,102382.38
2022-12-17T09:10:40.581Z,102386.19
2022-12-17T09:14:06.085Z,102388.13
2022-12-17T09:17:32.397Z,102378.47
2022-12-17T09:20:54.766Z,102377.31
2022-12-17T09:24:18.390Z,102369.97
2022-12-17T09:27:41.341Z,102367.69
2022-12-17T09:31:04.232Z,102360.59
2022-12-17T09:34:28.463Z,102360.16
2022-12-17T09:37:51.403Z,102359.25
2022-12-17T09:41:15.063Z,102342.38
2022-12-17T09:44:42.784Z,102343.84
2022-12-17T09:48:17.254Z,102335.69
2022-12-17T09:51:43.815Z,102324.75
2022-12-17T09:55:08.668Z,102324.66
2022-12-17T09:58:41.058Z,102335.34
2022-12-17T10:02:03.977Z,102341.19
2022-12-17T10:05:31.366Z,102317.78
2022-12-17T10:08:55.171Z,102322.69
2022-12-17T10:12:27.848Z,102332.66
2022-12-17T10:15:50.700Z,102336.31
2022-12-17T10:19:21.798Z,102337.59
2022-12-17T10:22:44.171Z,102332.94
2022-12-17T10:26:12.373Z,102324.81
2022-12-17T10:29:36.955Z,102316.38
2022-12-17T10:33:01.389Z,102307.03
2022-12-17T10:36:25.259Z,102308.88
2022-12-17T10:39:47.643Z,102304.78
2022-12-17T10:43:11.454Z,102310.66
2022-12-17T10:46:43.173Z,102305.50
2022-12-17T10:50:17.148Z,102297.72
2022-12-17T10:53:41.777Z,102297.03
2022-12-17T10:57:11.496Z,102299.78
2022-12-17T11:00:50.039Z,102296.41
2022-12-17T11:04:18.729Z,102279.25
2022-12-17T11:07:47.702Z,102283.03
2022-12-17T11:11:10.604Z,102272.25
2022-12-17T11:14:33.657Z,102279.84
2022-12-17T11:18:00.338Z,102290.69
2022-12-17T11:21:27.407Z,102283.56
2022-12-17T11:24:54.217Z,102284.06
2022-12-17T11:28:22.524Z,102280.06
2022-12-17T11:32:02.203Z,102296.59
2022-12-17T11:35:35.851Z,102289.66
2022-12-17T11:39:04.294Z,102276.72
2022-12-17T11:42:44.496Z,102292.38
2022-12-17T11:46:18.958Z,102278.03
2022-12-17T11:49:48.662Z,102279.13
2022-12-17T11:53:33.769Z,102278.75
2022-12-17T11:57:07.285Z,102272.69
2022-12-17T12:00:35.875Z,102260.66
2022-12-17T12:04:04.846Z,102262.84
2022-12-17T12:07:32.130Z,102262.69
2022-12-17T12:11:01.303Z,102250.59
2022-12-17T12:14:32.211Z,102246.13
2022-12-17T12:18:02.332Z,102250.59
2022-12-17T12:21:38.086Z,102255.75
2022-12-17T12:25:16.850Z,102254.03
2022-12-17T12:28:49.370Z,102260.97
2022-12-17T12:32:18.745Z,102262.50
2022-12-17T12:35:44.720Z,102263.63
2022-12-17T12:39:10.848Z,102255.00
2022-12-17T12:42:38.571Z,102252.66
2022-12-17T12:46:04.809Z,102245.78
2022-12-17T12:49:34.369Z,102244.19
2022-12-17T12:52:57.350Z,102241.44
2022-12-17T12:56:20.366Z,102236.53
2022-12-17T12:59:47.443Z,102253.44
2022-12-17T13:03:12.297Z,102246.09
2022-12-17T13:06:57.031Z,102246.25
2022-12-17T13:10:03.267Z,102229.63
2022-12-17T13:13:18.303Z,102211.56
2022-12-17T13:16:31.587Z,102200.56
2022-12-17T13:19:43.142Z,102204.66
2022-12-17T13:22:53.055Z,102236.47
2022-12-17T13:26:19.539Z,102228.75
2022-12-17T13:29:30.443Z,102230.72
2022-12-17T13:32:42.038Z,102215.59
2022-12-17T13:35:56.814Z,102237.38
2022-12-17T13:39:07.170Z,102232.16
2022-12-17T13:42:26.010Z,102238.19
2022-12-17T13:45:35.210Z,102234.44
2022-12-17T13:48:40.563Z,102239.16
2022-12-17T13:51:48.161Z,102240.56
2022-12-17T13:54:54.485Z,102233.09
2022-12-17T13:57:59.191Z,102231.81
2022-12-17T14:01:08.177Z,102238.84
2022-12-17T14:04:22.365Z,102246.03
2022-12-17T14:07:30.567Z,102240.31
2022-12-17T14:10:37.140Z,102254.94
2022-12-17T14:13:41.685Z,102250.53
2022-12-17T14:16:50.772Z,102246.06
2022-12-17T14:20:01.540Z,102234.34
2022-12-17T14:23:13.695Z,102249.09
2022-12-17T14:26:24.163Z,102222.34
2022-12-17T14:29:33.927Z,102213.22
2022-12-17T14:32:40.962Z,102235.06
2022-12-17T14:35:54.599Z,102225.94
2022-12-17T14:39:11.088Z,102224.03
2022-12-17T14:42:26.730Z,102221.09
2022-12-17T14:45:33.527Z,102221.94
2022-12-17T14:48:55.157Z,102230.28
2022-12-17T14:52:15.362Z,102226.84
2022-12-17T14:55:34.214Z,102225.81
2022-12-17T14:58:47.076Z,102229.78
2022-12-17T15:01:55.910Z,102229.78
2022-12-17T15:05:03.845Z,102227.63
2022-12-17T15:08:11.260Z,102245.22
2022-12-17T15:11:20.611Z,102237.41
2022-12-17T15:14:26.649Z,102244.41
2022-12-17T15:17:51.788Z,102241.66
2022-12-17T15:20:57.516Z,102233.00
2022-12-17T15:24:03.790Z,102231.81
2022-12-17T15:27:12.299Z,102242.56
2022-12-17T15:30:18.963Z,102234.63
2022-12-17T15:33:25.817Z,102232.00
2022-12-17T15:36:32.969Z,102226.31
2022-12-17T15:39:38.520Z,102219.47
2022-12-17T15:43:06.091Z,102211.72
2022-12-17T15:46:13.799Z,102212.22
2022-12-17T15:49:19.091Z,102216.31
2022-12-17T15:52:24.536Z,102204.59
2022-12-17T15:55:29.999Z,102211.63
2022-12-17T15:58:37.692Z,102233.28
2022-12-17T16:01:47.865Z,102235.97
2022-12-17T16:04:54.548Z,102232.59
2022-12-17T16:08:02.777Z,102227.47
2022-12-17T16:11:11.381Z,102222.84
2022-12-17T16:14:20.023Z,102234.50
2022-12-17T16:17:28.938Z,102233.00
2022-12-17T16:20:34.315Z,102222.69
2022-12-17T16:23:39.469Z,102218.44
2022-12-17T16:26:52.039Z,102229.22
2022-12-17T16:29:59.079Z,102256.63
2022-12-17T16:33:05.367Z,102245.25
2022-12-17T16:36:16.398Z,102255.06
2022-12-17T16:39:22.519Z,102246.38
2022-12-17T16:42:28.286Z,102243.31
2022-12-17T16:45:34.702Z,102255.59
2022-12-17T16:48:41.609Z,102264.03
2022-12-17T16:51:48.093Z,102252.28
2022-12-17T16:54:53.714Z,102261.69
2022-12-17T16:58:03.402Z,102268.78
2022-12-17T17:01:11.762Z,102271.50
2022-12-17T17:04:18.882Z,102276.59
2022-12-17T17:07:42.801Z,102278.34
2022-12-17T17:10:53.291Z,102269.66
2022-12-17T17:13:59.216Z,102275.22
2022-12-17T17:17:06.217Z,102273.81
2022-12-17T17:20:15.055Z,102281.97
2022-12-17T17:23:21.467Z,102277.91
2022-12-17T17:26:29.214Z,102290.16
2022-12-17T17:29:36.677Z,102290.84
2022-12-17T17:32:46.091Z,102294.63
2022-12-17T17:35:54.283Z,102290.69
2022-12-17T17:39:01.940Z,102284.13
2022-12-17T17:42:08.157Z,102293.44
2022-12-17T17:45:14.804Z,102304.88
2022-12-17T17:48:24.194Z,102309.94
2022-12-17T17:52:07.302Z,102308.16
2022-12-17T17:54:56.117Z,102320.88
2022-12-17T17:58:04.500Z,102313.69
2022-12-17T18:01:12.639Z,102325.97
2022-12-17T18:04:24.396Z,102319.44
2022-12-17T18:07:29.849Z,102320.53
2022-12-17T18:10:37.185Z,102306.44
2022-12-17T18:13:57.535Z,102317.47
2022-12-17T18:17:08.216Z,102318.22
2022-12-17T18:20:19.643Z,102328.63
2022-12-17T18:23:28.244Z,102326.50
2022-12-17T18:26:35.968Z,102337.44
2022-12-17T18:29:41.221Z,102332.75
2022-12-17T18:32:46.281Z,102319.91
2022-12-17T18:35:54.204Z,102311.50
2022-12-17T18:39:01.523Z,102321.16
2022-12-17T18:42:24.182Z,102310.53
2022-12-17T18:45:32.376Z,102315.84
2022-12-17T18:48:37.621Z,102304.31
2022-12-17T18:51:46.672Z,102326.16
2022-12-17T18:54:51.874Z,102322.25
2022-12-17T18:57:59.509Z,102313.06
2022-12-17T19:01:04.966Z,102322.97
2022-12-17T19:04:15.987Z,102328.81
2022-12-17T19:07:22.515Z,102333.91
2022-12-17T19:10:28.656Z,102339.63
2022-12-17T19:13:33.542Z,102339.66
2022-12-17T19:16:39.003Z,102332.81
2022-12-17T19:19:44.793Z,102341.38
2022-12-17T19:22:55.262Z,102339.00
2022-12-17T19:26:07.887Z,102349.88
2022-12-17T19:29:14.899Z,102335.63
2022-12-17T19:32:21.284Z,102342.22
2022-12-17T19:35:26.767Z,102337.22
2022-12-17T19:38:33.870Z,102332.34
2022-12-17T19:41:38.875Z,102342.16
2022-12-17T19:44:44.229Z,102338.22
2022-12-17T19:47:49.236Z,102332.09
2022-12-17T19:50:58.576Z,102333.91
2022-12-17T19:54:08.728Z,102344.00
2022-12-17T19:57:14.804Z,102328.19
2022-12-17T20:00:20.290Z,102353.19
2022-12-17T20:03:27.332Z,102351.53
2022-12-17T20:06:34.095Z,102358.25
2022-12-17T20:09:44.432Z,102353.13
2022-12-17T20:12:49.936Z,102363.75
2022-12-17T20:16:01.712Z,102359.47
2022-12-17T20:19:09.481Z,102356.47
2022-12-17T20:22:15.629Z,102359.00
2022-12-17T20:25:30.146Z,102358.13
2022-12-17T20:28:36.173Z,102360.53
2022-12-17T20:31:48.012Z,102359.97
2022-12-17T20:34:54.627Z,102348.31
2022-12-17T20:38:00.030Z,102357.53
2022-12-17T20:41:11.161Z,102353.38
2022-12-17T20:44:17.712Z,102355.09
2022-12-17T20:47:22.864Z,102351.75
2022-12-17T20:50:30.596Z,102357.41
2022-12-17T20:53:36.503Z,102365.84
2022-12-17T20:56:42.995Z,102357.69
2022-12-17T20:59:49.246Z,102366.28
2022-12-17T21:02:54.167Z,102348.81
2022-12-17T21:06:09.846Z,102356.28
2022-12-17T21:09:15.572Z,102354.75
2022-12-17T21:12:22.218Z,102358.25
2022-12-17T21:15:27.636Z,102347.38
2022-12-17T21:18:33.627Z,102353.44
2022-12-17T21:21:39.751Z,102353.19
2022-12-17T21:24:44.421Z,102356.34
2022-12-17T21:27:51.740Z,102353.44
2022-12-17T21:30:56.979Z,102358.59
2022-12-17T21:34:03.496Z,102354.03
2022-12-17T21:37:09.623Z,102350.06
2022-12-17T21:40:15.120Z,102355.81
2022-12-17T21:43:21.465Z,102370.34
2022-12-17T21:46:27.498Z,102362.00
2022-12-17T21:49:32.954Z,102350.31
2022-12-17T21:52:39.083Z,102374.59
2022-12-17T21:55:44.233Z,102367.44
2022-12-17T21:58:51.421Z,102374.66
2022-12-17T22:01:57.582Z,102382.91
2022-12-17T22:05:02.517Z,102383.91
2022-12-17T22:08:08.940Z,102378.97
2022-12-17T22:11:14.954Z,102373.09
2022-12-17T22:14:24.521Z,102382.19
2022-12-17T22:17:33.400Z,102384.72
2022-12-17T22:20:38.219Z,102384.84
2022-12-17T22:23:46.434Z,102384.06
2022-12-17T22:26:51.781Z,102385.50
2022-12-17T22:30:16.905Z,102365.69
2022-12-17T22:33:43.055Z,102363.25
2022-12-17T22:40:32.777Z,102367.41
2022-12-17T22:44:33.646Z,102356.53
2022-12-17T22:44:44.815Z,102365.16
2022-12-17T22:47:07.630Z,102361.09
2022-12-17T22:50:13.202Z,102376.22
2022-12-17T22:53:18.545Z,102389.44
2022-12-17T22:56:44.223Z,102381.88
2022-12-17T22:59:50.109Z,102388.06
2022-12-17T23:02:57.137Z,102386.47
2022-12-17T23:06:08.324Z,102388.13
2022-12-17T23:09:13.588Z,102403.91
2022-12-17T23:12:36.410Z,102393.19
2022-12-17T23:15:41.551Z,102396.69
2022-12-17T23:18:49.486Z,102383.09
2022-12-17T23:21:54.818Z,102377.53
2022-12-17T23:24:59.547Z,102370.06
2022-12-17T23:28:04.905Z,102359.00
2022-12-17T23:31:10.993Z,102361.69
2022-12-17T23:34:17.911Z,102362.53
2022-12-17T23:40:44.516Z,102354.53
2022-12-17T23:43:50.590Z,102350.09
2022-12-17T23:46:55.684Z,102345.41
2022-12-17T23:50:02.192Z,102342.09
2022-12-17T23:53:07.928Z,102346.13
2022-12-17T23:56:16.377Z,102341.06
2022-12-17T23:59:21.346Z,102354.78
